KDSM/DSM METAR and TAF weather

Enter ICAO airport designator
Station Type Date Time Source
KDSM METAR 2018/04/23 10:54 UTC NOAA

KDSM 231054Z 05006KT 10SM SCT100 BKN120 10/M02 A3019 RMK AO2 SLP222 T01001017


Station Type Date Time Source
KDSM Decoded METAR 2018/04/23 10:54 UTC NOAA

DES MOINES INTERNATIONAL, IA, United States (KDSM) 41-32N 93-40W 295M
Apr 23, 2018 - 06:54 AM EDT / 2018.04.23 1054 UTC
Wind: from the NE (050 degrees) at 7 MPH (6 KT):0
Visibility: 10 mile(s):0
Sky conditions: mostly cloudy
Temperature: 50.0 F (10.0 C)
Dew Point: 28.9 F (-1.7 C)
Relative Humidity: 43%
Pressure (altimeter): 30.19 in. Hg (1022 hPa)
ob: KDSM 231054Z 05006KT 10SM SCT100 BKN120 10/M02 A3019 RMK AO2 SLP222 T01001017
cycle: 11

Station Type Date Time Source
KDSM TAF 2018/04/23 12:22 UTC NOAA

TAF KDSM 231120Z 2312/2412 05009KT P6SM SCT200


Example: see airport list